sensor_id;sensor_type;location;lat;lon;timestamp;temperature;humidity
21167;DHT22;10741;52.272;9.580;2023-02-28T00:01:24;-0.60;99.90
21167;DHT22;10741;52.272;9.580;2023-02-28T00:03:50;-0.60;99.90
21167;DHT22;10741;52.272;9.580;2023-02-28T00:06:16;-0.60;99.90
21167;DHT22;10741;52.272;9.580;2023-02-28T00:08:42;-0.50;99.90
21167;DHT22;10741;52.272;9.580;2023-02-28T00:11:11;-0.40;99.90
21167;DHT22;10741;52.272;9.580;2023-02-28T00:13:40;-0.40;99.90
21167;DHT22;10741;52.272;9.580;2023-02-28T00:16:12;-0.30;99.90
21167;DHT22;10741;52.272;9.580;2023-02-28T00:18:38;-0.30;99.90
21167;DHT22;10741;52.272;9.580;2023-02-28T00:21:05;-0.30;99.90
21167;DHT22;10741;52.272;9.580;2023-02-28T00:23:31;-0.20;99.90
21167;DHT22;10741;52.272;9.580;2023-02-28T00:25:57;-0.20;99.90
21167;DHT22;10741;52.272;9.580;2023-02-28T00:28:23;-0.20;99.90
21167;DHT22;10741;52.272;9.580;2023-02-28T00:30:49;-0.10;99.90
21167;DHT22;10741;52.272;9.580;2023-02-28T00:33:15;-0.10;99.90
21167;DHT22;10741;52.272;9.580;2023-02-28T00:35:41;-0.10;99.90
21167;DHT22;10741;52.272;9.580;2023-02-28T00:38:07;0.00;99.90
21167;DHT22;10741;52.272;9.580;2023-02-28T00:40:32;0.00;99.90
21167;DHT22;10741;52.272;9.580;2023-02-28T00:42:58;0.00;99.90
21167;DHT22;10741;52.272;9.580;2023-02-28T00:45:24;0.00;99.90
21167;DHT22;10741;52.272;9.580;2023-02-28T00:47:50;-0.10;99.90
21167;DHT22;10741;52.272;9.580;2023-02-28T00:50:19;-0.10;99.90
21167;DHT22;10741;52.272;9.580;2023-02-28T00:52:46;-0.10;99.90
21167;DHT22;10741;52.272;9.580;2023-02-28T00:55:12;-0.20;99.90
21167;DHT22;10741;52.272;9.580;2023-02-28T00:57:37;-0.30;99.90
21167;DHT22;10741;52.272;9.580;2023-02-28T01:00:04;-0.30;99.90
21167;DHT22;10741;52.272;9.580;2023-02-28T01:02:30;-0.40;99.90
21167;DHT22;10741;52.272;9.580;2023-02-28T01:04:56;-0.50;99.90
21167;DHT22;10741;52.272;9.580;2023-02-28T01:07:23;-0.60;99.90
21167;DHT22;10741;52.272;9.580;2023-02-28T01:09:48;-0.70;99.90
21167;DHT22;10741;52.272;9.580;2023-02-28T01:12:15;-0.90;99.90
21167;DHT22;10741;52.272;9.580;2023-02-28T01:14:41;-1.00;99.90
21167;DHT22;10741;52.272;9.580;2023-02-28T01:17:06;-1.10;99.90
21167;DHT22;10741;52.272;9.580;2023-02-28T01:19:32;-1.20;99.90
21167;DHT22;10741;52.272;9.580;2023-02-28T01:22:04;-1.30;99.90
21167;DHT22;10741;52.272;9.580;2023-02-28T01:24:30;-1.40;99.90
21167;DHT22;10741;52.272;9.580;2023-02-28T01:26:56;-1.50;99.90
21167;DHT22;10741;52.272;9.580;2023-02-28T01:29:22;-1.50;99.90
21167;DHT22;10741;52.272;9.580;2023-02-28T01:31:48;-1.60;99.90
21167;DHT22;10741;52.272;9.580;2023-02-28T01:34:13;-1.60;99.90
21167;DHT22;10741;52.272;9.580;2023-02-28T01:36:39;-1.60;99.90
21167;DHT22;10741;52.272;9.580;2023-02-28T01:39:05;-1.60;99.90
21167;DHT22;10741;52.272;9.580;2023-02-28T01:41:33;-1.60;99.90
21167;DHT22;10741;52.272;9.580;2023-02-28T01:46:33;-1.70;99.90
21167;DHT22;10741;52.272;9.580;2023-02-28T01:49:16;-1.80;99.90
21167;DHT22;10741;52.272;9.580;2023-02-28T01:51:49;-1.80;99.90
21167;DHT22;10741;52.272;9.580;2023-02-28T01:54:29;-1.80;99.90
21167;DHT22;10741;52.272;9.580;2023-02-28T01:59:52;-1.90;99.90
21167;DHT22;10741;52.272;9.580;2023-02-28T02:02:17;-2.00;99.90
21167;DHT22;10741;52.272;9.580;2023-02-28T02:05:00;-2.00;99.90
21167;DHT22;10741;52.272;9.580;2023-02-28T02:07:31;-2.10;99.90
21167;DHT22;10741;52.272;9.580;2023-02-28T02:10:24;-2.10;99.90
21167;DHT22;10741;52.272;9.580;2023-02-28T02:13:14;-2.10;99.90
21167;DHT22;10741;52.272;9.580;2023-02-28T02:16:31;-2.10;99.90
21167;DHT22;10741;52.272;9.580;2023-02-28T02:36:06;-2.30;99.90
21167;DHT22;10741;52.272;9.580;2023-02-28T02:38:52;-2.30;99.90
21167;DHT22;10741;52.272;9.580;2023-02-28T02:41:28;-2.30;99.90
21167;DHT22;10741;52.272;9.580;2023-02-28T02:44:40;-2.40;99.90
21167;DHT22;10741;52.272;9.580;2023-02-28T02:47:12;-2.40;99.90
21167;DHT22;10741;52.272;9.580;2023-02-28T02:49:46;-2.50;99.90
21167;DHT22;10741;52.272;9.580;2023-02-28T02:52:17;-2.50;99.90
21167;DHT22;10741;52.272;9.580;2023-02-28T02:54:45;-2.50;99.90
21167;DHT22;10741;52.272;9.580;2023-02-28T02:57:25;-2.50;99.90
21167;DHT22;10741;52.272;9.580;2023-02-28T02:59:54;-2.50;99.90
21167;DHT22;10741;52.272;9.580;2023-02-28T03:02:21;-2.60;99.90
21167;DHT22;10741;52.272;9.580;2023-02-28T03:04:59;-2.60;99.90
21167;DHT22;10741;52.272;9.580;2023-02-28T03:07:26;-2.60;99.90
21167;DHT22;10741;52.272;9.580;2023-02-28T03:09:54;-2.70;99.90
21167;DHT22;10741;52.272;9.580;2023-02-28T03:12:23;-2.70;99.90
21167;DHT22;10741;52.272;9.580;2023-02-28T03:22:50;-2.80;99.90
21167;DHT22;10741;52.272;9.580;2023-02-28T03:28:00;-2.90;99.90
21167;DHT22;10741;52.272;9.580;2023-02-28T03:30:47;-2.90;99.90
21167;DHT22;10741;52.272;9.580;2023-02-28T03:33:42;-2.90;99.90
21167;DHT22;10741;52.272;9.580;2023-02-28T03:36:13;-2.90;99.90
21167;DHT22;10741;52.272;9.580;2023-02-28T03:38:57;-3.00;99.90
21167;DHT22;10741;52.272;9.580;2023-02-28T03:41:35;-3.00;99.90
21167;DHT22;10741;52.272;9.580;2023-02-28T03:44:12;-3.10;99.90
21167;DHT22;10741;52.272;9.580;2023-02-28T03:46:51;-3.10;99.90
21167;DHT22;10741;52.272;9.580;2023-02-28T03:49:21;-3.10;99.90
21167;DHT22;10741;52.272;9.580;2023-02-28T03:51:49;-3.20;99.90
21167;DHT22;10741;52.272;9.580;2023-02-28T03:54:19;-3.20;99.90
21167;DHT22;10741;52.272;9.580;2023-02-28T03:59:36;-3.30;99.90
21167;DHT22;10741;52.272;9.580;2023-02-28T04:02:02;-3.30;99.90
21167;DHT22;10741;52.272;9.580;2023-02-28T04:04:28;-3.30;99.90
21167;DHT22;10741;52.272;9.580;2023-02-28T04:07:02;-3.40;99.90
21167;DHT22;10741;52.272;9.580;2023-02-28T04:09:28;-3.30;99.90
21167;DHT22;10741;52.272;9.580;2023-02-28T04:11:54;-3.30;99.90
21167;DHT22;10741;52.272;9.580;2023-02-28T04:14:23;-3.30;99.90
21167;DHT22;10741;52.272;9.580;2023-02-28T04:16:49;-3.40;99.90
21167;DHT22;10741;52.272;9.580;2023-02-28T04:19:16;-3.40;99.90
21167;DHT22;10741;52.272;9.580;2023-02-28T04:21:45;-3.40;99.90
21167;DHT22;10741;52.272;9.580;2023-02-28T04:24:13;-3.40;99.90
21167;DHT22;10741;52.272;9.580;2023-02-28T04:26:41;-3.40;99.90
21167;DHT22;10741;52.272;9.580;2023-02-28T04:29:10;-3.50;99.90
21167;DHT22;10741;52.272;9.580;2023-02-28T04:31:36;-3.50;99.90
21167;DHT22;10741;52.272;9.580;2023-02-28T04:34:02;-3.50;99.90
21167;DHT22;10741;52.272;9.580;2023-02-28T04:36:27;-3.50;99.90
21167;DHT22;10741;52.272;9.580;2023-02-28T04:38:53;-3.60;99.90
21167;DHT22;10741;52.272;9.580;2023-02-28T04:41:20;-3.50;99.90
21167;DHT22;10741;52.272;9.580;2023-02-28T04:43:46;-3.60;99.90
21167;DHT22;10741;52.272;9.580;2023-02-28T04:46:12;-3.60;99.90
21167;DHT22;10741;52.272;9.580;2023-02-28T04:48:39;-3.60;99.90
21167;DHT22;10741;52.272;9.580;2023-02-28T04:51:09;-3.60;99.90
21167;DHT22;10741;52.272;9.580;2023-02-28T04:53:37;-3.60;99.90
21167;DHT22;10741;52.272;9.580;2023-02-28T04:56:03;-3.60;99.90
21167;DHT22;10741;52.272;9.580;2023-02-28T04:58:30;-3.60;99.90
21167;DHT22;10741;52.272;9.580;2023-02-28T05:01:03;-3.60;99.90
21167;DHT22;10741;52.272;9.580;2023-02-28T05:03:29;-3.70;99.90
21167;DHT22;10741;52.272;9.580;2023-02-28T05:05:55;-3.70;99.90
21167;DHT22;10741;52.272;9.580;2023-02-28T05:08:20;-3.70;99.90
21167;DHT22;10741;52.272;9.580;2023-02-28T05:10:46;-3.70;99.90
21167;DHT22;10741;52.272;9.580;2023-02-28T05:13:12;-3.70;99.90
21167;DHT22;10741;52.272;9.580;2023-02-28T05:15:38;-3.70;99.90
21167;DHT22;10741;52.272;9.580;2023-02-28T05:18:04;-3.70;99.90
21167;DHT22;10741;52.272;9.580;2023-02-28T05:20:30;-3.70;99.90
21167;DHT22;10741;52.272;9.580;2023-02-28T05:22:56;-3.70;99.90
21167;DHT22;10741;52.272;9.580;2023-02-28T05:25:23;-3.70;99.90
21167;DHT22;10741;52.272;9.580;2023-02-28T05:27:49;-3.60;99.90
21167;DHT22;10741;52.272;9.580;2023-02-28T05:30:15;-3.60;99.90
21167;DHT22;10741;52.272;9.580;2023-02-28T05:32:41;-3.60;99.90
21167;DHT22;10741;52.272;9.580;2023-02-28T05:35:11;-3.60;99.90
21167;DHT22;10741;52.272;9.580;2023-02-28T05:37:37;-3.60;99.90
21167;DHT22;10741;52.272;9.580;2023-02-28T05:40:05;-3.60;99.90
21167;DHT22;10741;52.272;9.580;2023-02-28T05:42:37;-3.70;99.90
21167;DHT22;10741;52.272;9.580;2023-02-28T05:45:03;-3.70;99.90
21167;DHT22;10741;52.272;9.580;2023-02-28T05:47:29;-3.70;99.90
21167;DHT22;10741;52.272;9.580;2023-02-28T05:49:55;-3.70;99.90
21167;DHT22;10741;52.272;9.580;2023-02-28T05:52:21;-3.70;99.90
21167;DHT22;10741;52.272;9.580;2023-02-28T05:54:47;-3.70;99.90
21167;DHT22;10741;52.272;9.580;2023-02-28T05:57:13;-3.80;99.90
21167;DHT22;10741;52.272;9.580;2023-02-28T05:59:39;-3.80;99.90
21167;DHT22;10741;52.272;9.580;2023-02-28T06:02:06;-3.80;99.90
21167;DHT22;10741;52.272;9.580;2023-02-28T06:04:36;-3.80;99.90
21167;DHT22;10741;52.272;9.580;2023-02-28T06:07:02;-3.70;99.90
21167;DHT22;10741;52.272;9.580;2023-02-28T06:09:28;-3.70;99.90
21167;DHT22;10741;52.272;9.580;2023-02-28T06:11:56;-3.70;99.90
21167;DHT22;10741;52.272;9.580;2023-02-28T06:14:22;-3.70;99.90
21167;DHT22;10741;52.272;9.580;2023-02-28T06:16:48;-3.70;99.90
21167;DHT22;10741;52.272;9.580;2023-02-28T06:19:14;-3.70;99.90
21167;DHT22;10741;52.272;9.580;2023-02-28T06:21:41;-3.70;99.90
21167;DHT22;10741;52.272;9.580;2023-02-28T06:24:07;-3.70;99.90
21167;DHT22;10741;52.272;9.580;2023-02-28T06:26:33;-3.60;99.90
21167;DHT22;10741;52.272;9.580;2023-02-28T06:28:59;-3.60;99.90
21167;DHT22;10741;52.272;9.580;2023-02-28T06:31:26;-3.60;99.90
21167;DHT22;10741;52.272;9.580;2023-02-28T06:33:52;-3.60;99.90
21167;DHT22;10741;52.272;9.580;2023-02-28T06:36:18;-3.50;99.90
21167;DHT22;10741;52.272;9.580;2023-02-28T06:38:44;-3.40;99.90
21167;DHT22;10741;52.272;9.580;2023-02-28T06:41:10;-3.40;99.90
21167;DHT22;10741;52.272;9.580;2023-02-28T06:43:39;-3.30;99.90
21167;DHT22;10741;52.272;9.580;2023-02-28T06:46:07;-3.30;99.90
21167;DHT22;10741;52.272;9.580;2023-02-28T06:48:34;-3.20;99.90
21167;DHT22;10741;52.272;9.580;2023-02-28T06:51:08;-3.20;99.90
21167;DHT22;10741;52.272;9.580;2023-02-28T06:53:35;-3.20;99.90
21167;DHT22;10741;52.272;9.580;2023-02-28T06:56:08;-3.20;99.90
21167;DHT22;10741;52.272;9.580;2023-02-28T06:58:34;-3.20;99.90
21167;DHT22;10741;52.272;9.580;2023-02-28T07:01:01;-3.10;99.90
21167;DHT22;10741;52.272;9.580;2023-02-28T07:03:26;-3.10;99.90
21167;DHT22;10741;52.272;9.580;2023-02-28T07:05:53;-2.90;99.90
21167;DHT22;10741;52.272;9.580;2023-02-28T07:08:18;-2.60;99.90
21167;DHT22;10741;52.272;9.580;2023-02-28T07:10:44;-2.40;99.90
21167;DHT22;10741;52.272;9.580;2023-02-28T07:13:11;-2.10;99.90
21167;DHT22;10741;52.272;9.580;2023-02-28T07:15:37;-1.80;99.90
21167;DHT22;10741;52.272;9.580;2023-02-28T07:18:03;-1.60;99.90
21167;DHT22;10741;52.272;9.580;2023-02-28T07:20:30;-1.30;99.90
21167;DHT22;10741;52.272;9.580;2023-02-28T07:22:55;-0.80;99.90
21167;DHT22;10741;52.272;9.580;2023-02-28T07:25:26;-0.50;99.90
21167;DHT22;10741;52.272;9.580;2023-02-28T07:27:52;-0.20;99.90
21167;DHT22;10741;52.272;9.580;2023-02-28T07:30:19;0.00;99.90
21167;DHT22;10741;52.272;9.580;2023-02-28T07:32:44;0.30;99.90
21167;DHT22;10741;52.272;9.580;2023-02-28T07:35:11;0.50;99.90
21167;DHT22;10741;52.272;9.580;2023-02-28T07:37:37;0.70;99.90
21167;DHT22;10741;52.272;9.580;2023-02-28T07:40:08;1.00;99.90
21167;DHT22;10741;52.272;9.580;2023-02-28T07:42:35;1.10;99.90
21167;DHT22;10741;52.272;9.580;2023-02-28T07:45:01;1.20;99.90
21167;DHT22;10741;52.272;9.580;2023-02-28T07:47:29;1.80;99.90
21167;DHT22;10741;52.272;9.580;2023-02-28T07:49:55;2.30;99.90
21167;DHT22;10741;52.272;9.580;2023-02-28T07:52:22;2.90;99.90
21167;DHT22;10741;52.272;9.580;2023-02-28T07:54:51;3.00;99.90
21167;DHT22;10741;52.272;9.580;2023-02-28T07:57:17;3.00;99.90
21167;DHT22;10741;52.272;9.580;2023-02-28T07:59:43;3.00;99.90
21167;DHT22;10741;52.272;9.580;2023-02-28T08:02:14;3.30;99.90
21167;DHT22;10741;52.272;9.580;2023-02-28T08:04:40;3.40;99.90
21167;DHT22;10741;52.272;9.580;2023-02-28T08:07:06;3.70;99.90
21167;DHT22;10741;52.272;9.580;2023-02-28T08:09:32;4.00;99.90
21167;DHT22;10741;52.272;9.580;2023-02-28T08:11:57;4.30;99.90
21167;DHT22;10741;52.272;9.580;2023-02-28T08:14:23;4.80;99.90
21167;DHT22;10741;52.272;9.580;2023-02-28T08:16:49;5.20;99.90
21167;DHT22;10741;52.272;9.580;2023-02-28T08:19:15;5.50;99.90
21167;DHT22;10741;52.272;9.580;2023-02-28T08:21:40;5.80;99.90
21167;DHT22;10741;52.272;9.580;2023-02-28T08:24:06;6.10;99.90
21167;DHT22;10741;52.272;9.580;2023-02-28T08:26:32;6.60;99.90
21167;DHT22;10741;52.272;9.580;2023-02-28T08:28:58;7.50;99.90
21167;DHT22;10741;52.272;9.580;2023-02-28T08:31:24;7.80;99.90
21167;DHT22;10741;52.272;9.580;2023-02-28T08:33:50;7.80;99.90
21167;DHT22;10741;52.272;9.580;2023-02-28T08:36:19;8.60;99.90
21167;DHT22;10741;52.272;9.580;2023-02-28T08:38:45;9.20;99.90
21167;DHT22;10741;52.272;9.580;2023-02-28T08:41:12;9.00;99.90
21167;DHT22;10741;52.272;9.580;2023-02-28T08:43:39;9.20;99.90
21167;DHT22;10741;52.272;9.580;2023-02-28T08:46:06;9.40;99.90
21167;DHT22;10741;52.272;9.580;2023-02-28T08:48:34;9.40;99.70
21167;DHT22;10741;52.272;9.580;2023-02-28T08:51:02;9.20;99.90
21167;DHT22;10741;52.272;9.580;2023-02-28T08:53:28;9.10;99.50
21167;DHT22;10741;52.272;9.580;2023-02-28T08:55:59;9.00;99.60
21167;DHT22;10741;52.272;9.580;2023-02-28T08:58:25;8.80;99.90
21167;DHT22;10741;52.272;9.580;2023-02-28T09:00:52;8.60;99.90
21167;DHT22;10741;52.272;9.580;2023-02-28T09:03:20;8.80;99.90
21167;DHT22;10741;52.272;9.580;2023-02-28T09:05:58;9.10;99.90
21167;DHT22;10741;52.272;9.580;2023-02-28T09:08:25;9.00;99.60
21167;DHT22;10741;52.272;9.580;2023-02-28T09:10:52;9.10;99.20
21167;DHT22;10741;52.272;9.580;2023-02-28T09:13:18;9.10;99.10
21167;DHT22;10741;52.272;9.580;2023-02-28T09:15:44;9.20;99.40
21167;DHT22;10741;52.272;9.580;2023-02-28T09:18:10;9.50;99.00
21167;DHT22;10741;52.272;9.580;2023-02-28T09:20:40;9.60;98.60
21167;DHT22;10741;52.272;9.580;2023-02-28T09:23:07;9.60;98.50
21167;DHT22;10741;52.272;9.580;2023-02-28T09:25:34;9.50;99.10
21167;DHT22;10741;52.272;9.580;2023-02-28T09:28:00;9.80;98.60
21167;DHT22;10741;52.272;9.580;2023-02-28T09:30:26;10.00;98.60
21167;DHT22;10741;52.272;9.580;2023-02-28T09:32:52;9.80;98.50
21167;DHT22;10741;52.272;9.580;2023-02-28T09:35:22;9.60;98.70
21167;DHT22;10741;52.272;9.580;2023-02-28T09:37:51;9.30;98.60
21167;DHT22;10741;52.272;9.580;2023-02-28T09:40:20;9.20;98.90
21167;DHT22;10741;52.272;9.580;2023-02-28T09:42:49;8.90;99.40
21167;DHT22;10741;52.272;9.580;2023-02-28T09:45:24;8.80;99.90
21167;DHT22;10741;52.272;9.580;2023-02-28T09:47:53;8.30;99.90
21167;DHT22;10741;52.272;9.580;2023-02-28T09:50:36;8.30;99.90
21167;DHT22;10741;52.272;9.580;2023-02-28T09:53:28;8.10;99.90
21167;DHT22;10741;52.272;9.580;2023-02-28T09:56:03;8.00;99.90
21167;DHT22;10741;52.272;9.580;2023-02-28T10:01:25;7.90;99.90
21167;DHT22;10741;52.272;9.580;2023-02-28T10:06:37;8.10;99.90
21167;DHT22;10741;52.272;9.580;2023-02-28T10:09:14;8.40;99.90
21167;DHT22;10741;52.272;9.580;2023-02-28T10:11:42;8.30;99.90
21167;DHT22;10741;52.272;9.580;2023-02-28T10:14:19;8.20;99.90
21167;DHT22;10741;52.272;9.580;2023-02-28T10:16:56;7.90;99.90
21167;DHT22;10741;52.272;9.580;2023-02-28T10:22:44;8.00;99.90
21167;DHT22;10741;52.272;9.580;2023-02-28T10:25:22;8.30;99.90
21167;DHT22;10741;52.272;9.580;2023-02-28T10:27:49;8.30;99.90
21167;DHT22;10741;52.272;9.580;2023-02-28T10:30:18;7.70;99.90
21167;DHT22;10741;52.272;9.580;2023-02-28T10:32:50;7.50;99.90
21167;DHT22;10741;52.272;9.580;2023-02-28T10:35:24;7.30;99.90
21167;DHT22;10741;52.272;9.580;2023-02-28T10:37:56;7.20;99.90
21167;DHT22;10741;52.272;9.580;2023-02-28T10:43:03;7.20;99.90
21167;DHT22;10741;52.272;9.580;2023-02-28T10:45:32;7.40;99.90
21167;DHT22;10741;52.272;9.580;2023-02-28T10:58:57;7.90;99.90
21167;DHT22;10741;52.272;9.580;2023-02-28T11:01:35;7.90;99.90
21167;DHT22;10741;52.272;9.580;2023-02-28T11:04:01;8.00;99.90
21167;DHT22;10741;52.272;9.580;2023-02-28T11:06:33;8.10;99.90
21167;DHT22;10741;52.272;9.580;2023-02-28T11:09:02;8.20;99.90
21167;DHT22;10741;52.272;9.580;2023-02-28T11:11:31;8.10;99.70
21167;DHT22;10741;52.272;9.580;2023-02-28T11:14:16;7.80;99.90
21167;DHT22;10741;52.272;9.580;2023-02-28T11:16:43;7.60;99.90
21167;DHT22;10741;52.272;9.580;2023-02-28T11:19:19;8.10;99.90
21167;DHT22;10741;52.272;9.580;2023-02-28T11:22:00;8.40;99.90
21167;DHT22;10741;52.272;9.580;2023-02-28T11:24:40;9.10;99.90
21167;DHT22;10741;52.272;9.580;2023-02-28T11:29:57;8.70;97.90
21167;DHT22;10741;52.272;9.580;2023-02-28T11:32:25;7.80;99.90
21167;DHT22;10741;52.272;9.580;2023-02-28T11:35:36;7.30;99.90
21167;DHT22;10741;52.272;9.580;2023-02-28T11:38:09;6.70;99.90
21167;DHT22;10741;52.272;9.580;2023-02-28T11:44:01;5.90;99.90
21167;DHT22;10741;52.272;9.580;2023-02-28T11:46:51;5.50;99.90
21167;DHT22;10741;52.272;9.580;2023-02-28T11:52:00;5.40;99.90
21167;DHT22;10741;52.272;9.580;2023-02-28T11:54:50;5.30;99.90
21167;DHT22;10741;52.272;9.580;2023-02-28T11:57:38;5.40;99.90
21167;DHT22;10741;52.272;9.580;2023-02-28T12:03:53;5.20;99.90
21167;DHT22;10741;52.272;9.580;2023-02-28T12:05:53;5.20;99.90
21167;DHT22;10741;52.272;9.580;2023-02-28T12:08:53;5.00;99.90
21167;DHT22;10741;52.272;9.580;2023-02-28T12:17:06;5.20;99.90
21167;DHT22;10741;52.272;9.580;2023-02-28T12:22:47;5.20;99.90
21167;DHT22;10741;52.272;9.580;2023-02-28T12:28:04;5.50;99.90
21167;DHT22;10741;52.272;9.580;2023-02-28T12:30:33;5.90;99.90
21167;DHT22;10741;52.272;9.580;2023-02-28T12:33:32;6.20;99.90
21167;DHT22;10741;52.272;9.580;2023-02-28T12:36:03;6.50;99.90
21167;DHT22;10741;52.272;9.580;2023-02-28T12:38:45;6.60;99.90
21167;DHT22;10741;52.272;9.580;2023-02-28T12:41:18;8.10;99.90
21167;DHT22;10741;52.272;9.580;2023-02-28T12:43:58;9.00;98.20
21167;DHT22;10741;52.272;9.580;2023-02-28T12:46:34;8.10;98.80
21167;DHT22;10741;52.272;9.580;2023-02-28T12:49:17;8.10;99.40
21167;DHT22;10741;52.272;9.580;2023-02-28T12:51:45;9.40;98.00
21167;DHT22;10741;52.272;9.580;2023-02-28T12:54:23;10.60;95.50
21167;DHT22;10741;52.272;9.580;2023-02-28T12:59:54;9.60;95.30
21167;DHT22;10741;52.272;9.580;2023-02-28T13:02:59;9.00;96.30
21167;DHT22;10741;52.272;9.580;2023-02-28T13:10:58;10.80;95.70
21167;DHT22;10741;52.272;9.580;2023-02-28T13:13:27;11.00;94.60
21167;DHT22;10741;52.272;9.580;2023-02-28T13:16:06;11.60;93.20
21167;DHT22;10741;52.272;9.580;2023-02-28T13:18:42;10.90;93.20
21167;DHT22;10741;52.272;9.580;2023-02-28T13:21:30;10.10;94.60
21167;DHT22;10741;52.272;9.580;2023-02-28T13:24:01;9.70;94.40
21167;DHT22;10741;52.272;9.580;2023-02-28T13:34:27;11.50;92.70
21167;DHT22;10741;52.272;9.580;2023-02-28T13:39:57;12.00;90.80
21167;DHT22;10741;52.272;9.580;2023-02-28T13:47:54;12.20;90.30
21167;DHT22;10741;52.272;9.580;2023-02-28T13:50:27;12.20;90.70
21167;DHT22;10741;52.272;9.580;2023-02-28T13:55:49;11.70;92.10
21167;DHT22;10741;52.272;9.580;2023-02-28T14:09:02;11.70;90.10
21167;DHT22;10741;52.272;9.580;2023-02-28T14:11:36;12.00;90.10
21167;DHT22;10741;52.272;9.580;2023-02-28T14:14:04;12.50;87.40
21167;DHT22;10741;52.272;9.580;2023-02-28T14:16:39;12.50;89.80
21167;DHT22;10741;52.272;9.580;2023-02-28T14:19:27;12.40;88.50
21167;DHT22;10741;52.272;9.580;2023-02-28T14:22:03;11.60;90.20
21167;DHT22;10741;52.272;9.580;2023-02-28T14:32:35;11.20;90.50
21167;DHT22;10741;52.272;9.580;2023-02-28T14:37:48;11.30;89.10
21167;DHT22;10741;52.272;9.580;2023-02-28T14:40:22;11.60;90.20
21167;DHT22;10741;52.272;9.580;2023-02-28T14:43:04;11.80;89.60
21167;DHT22;10741;52.272;9.580;2023-02-28T14:45:33;11.60;87.30
21167;DHT22;10741;52.272;9.580;2023-02-28T14:48:01;11.50;88.40
21167;DHT22;10741;52.272;9.580;2023-02-28T14:50:32;11.30;90.80
21167;DHT22;10741;52.272;9.580;2023-02-28T14:52:59;11.10;90.70
21167;DHT22;10741;52.272;9.580;2023-02-28T14:55:31;11.20;90.00
21167;DHT22;10741;52.272;9.580;2023-02-28T14:58:17;11.10;88.10
21167;DHT22;10741;52.272;9.580;2023-02-28T15:00:49;11.10;90.60
21167;DHT22;10741;52.272;9.580;2023-02-28T15:03:33;10.90;90.20
21167;DHT22;10741;52.272;9.580;2023-02-28T15:06:05;10.70;90.10
21167;DHT22;10741;52.272;9.580;2023-02-28T15:08:32;11.00;90.30
21167;DHT22;10741;52.272;9.580;2023-02-28T15:11:02;10.80;90.00
21167;DHT22;10741;52.272;9.580;2023-02-28T15:13:46;10.40;90.00
21167;DHT22;10741;52.272;9.580;2023-02-28T15:16:16;10.20;90.00
21167;DHT22;10741;52.272;9.580;2023-02-28T15:21:43;9.90;91.60
21167;DHT22;10741;52.272;9.580;2023-02-28T15:26:57;9.00;92.30
21167;DHT22;10741;52.272;9.580;2023-02-28T15:29:26;8.50;93.20
21167;DHT22;10741;52.272;9.580;2023-02-28T15:32:04;7.80;94.30
21167;DHT22;10741;52.272;9.580;2023-02-28T15:34:39;7.30;94.50
21167;DHT22;10741;52.272;9.580;2023-02-28T15:37:28;7.00;95.30
21167;DHT22;10741;52.272;9.580;2023-02-28T15:39:56;6.80;95.80
21167;DHT22;10741;52.272;9.580;2023-02-28T15:42:28;6.60;95.90
21167;DHT22;10741;52.272;9.580;2023-02-28T15:44:54;6.40;96.50
21167;DHT22;10741;52.272;9.580;2023-02-28T15:47:23;6.20;97.50
21167;DHT22;10741;52.272;9.580;2023-02-28T15:50:03;6.00;97.60
21167;DHT22;10741;52.272;9.580;2023-02-28T15:52:43;5.90;97.60
21167;DHT22;10741;52.272;9.580;2023-02-28T15:55:22;5.80;99.00
21167;DHT22;10741;52.272;9.580;2023-02-28T15:57:54;5.60;99.30
21167;DHT22;10741;52.272;9.580;2023-02-28T16:00:26;5.50;99.90
21167;DHT22;10741;52.272;9.580;2023-02-28T16:02:52;5.40;99.90
21167;DHT22;10741;52.272;9.580;2023-02-28T16:07:47;5.20;99.90
21167;DHT22;10741;52.272;9.580;2023-02-28T16:10:14;5.20;99.90
21167;DHT22;10741;52.272;9.580;2023-02-28T16:12:40;5.10;99.90
21167;DHT22;10741;52.272;9.580;2023-02-28T16:15:19;5.00;99.90
21167;DHT22;10741;52.272;9.580;2023-02-28T16:17:45;5.00;99.90
21167;DHT22;10741;52.272;9.580;2023-02-28T16:20:16;4.90;99.90
21167;DHT22;10741;52.272;9.580;2023-02-28T16:22:42;4.80;99.90
21167;DHT22;10741;52.272;9.580;2023-02-28T16:25:15;4.70;99.90
21167;DHT22;10741;52.272;9.580;2023-02-28T16:27:42;4.60;99.90
21167;DHT22;10741;52.272;9.580;2023-02-28T16:30:20;4.60;99.90
21167;DHT22;10741;52.272;9.580;2023-02-28T16:32:48;4.50;99.90
21167;DHT22;10741;52.272;9.580;2023-02-28T16:35:14;4.40;99.90
21167;DHT22;10741;52.272;9.580;2023-02-28T16:37:40;4.30;99.90
21167;DHT22;10741;52.272;9.580;2023-02-28T16:40:21;4.20;99.90
21167;DHT22;10741;52.272;9.580;2023-02-28T16:42:51;4.00;99.90
21167;DHT22;10741;52.272;9.580;2023-02-28T16:45:23;3.90;99.90
21167;DHT22;10741;52.272;9.580;2023-02-28T16:47:49;3.80;99.90
21167;DHT22;10741;52.272;9.580;2023-02-28T16:52:45;3.60;99.90
21167;DHT22;10741;52.272;9.580;2023-02-28T16:55:12;3.40;99.90
21167;DHT22;10741;52.272;9.580;2023-02-28T16:57:38;3.30;99.90
21167;DHT22;10741;52.272;9.580;2023-02-28T17:00:06;3.20;99.90
21167;DHT22;10741;52.272;9.580;2023-02-28T17:02:34;3.00;99.90
21167;DHT22;10741;52.272;9.580;2023-02-28T17:05:00;2.90;99.90
21167;DHT22;10741;52.272;9.580;2023-02-28T17:07:26;2.90;99.90
21167;DHT22;10741;52.272;9.580;2023-02-28T17:09:52;2.80;99.90
21167;DHT22;10741;52.272;9.580;2023-02-28T17:12:17;2.70;99.90
21167;DHT22;10741;52.272;9.580;2023-02-28T17:14:43;2.60;99.90
21167;DHT22;10741;52.272;9.580;2023-02-28T17:17:15;2.50;99.90
21167;DHT22;10741;52.272;9.580;2023-02-28T17:19:42;2.40;99.90
21167;DHT22;10741;52.272;9.580;2023-02-28T17:22:09;2.30;99.90
21167;DHT22;10741;52.272;9.580;2023-02-28T17:24:35;2.20;99.90
21167;DHT22;10741;52.272;9.580;2023-02-28T17:27:01;2.10;99.90
21167;DHT22;10741;52.272;9.580;2023-02-28T17:29:27;2.00;99.90
21167;DHT22;10741;52.272;9.580;2023-02-28T17:31:53;1.90;99.90
21167;DHT22;10741;52.272;9.580;2023-02-28T17:34:19;1.80;99.90
21167;DHT22;10741;52.272;9.580;2023-02-28T17:36:47;1.60;99.90
21167;DHT22;10741;52.272;9.580;2023-02-28T17:39:15;1.50;99.90
21167;DHT22;10741;52.272;9.580;2023-02-28T17:41:41;1.40;99.90
21167;DHT22;10741;52.272;9.580;2023-02-28T17:44:08;1.40;99.90
21167;DHT22;10741;52.272;9.580;2023-02-28T17:46:34;1.30;99.90
21167;DHT22;10741;52.272;9.580;2023-02-28T17:49:01;1.30;99.90
21167;DHT22;10741;52.272;9.580;2023-02-28T17:51:27;1.20;99.90
21167;DHT22;10741;52.272;9.580;2023-02-28T17:53:52;1.10;99.90
21167;DHT22;10741;52.272;9.580;2023-02-28T17:56:21;1.00;99.90
21167;DHT22;10741;52.272;9.580;2023-02-28T17:58:49;0.90;99.90
21167;DHT22;10741;52.272;9.580;2023-02-28T18:01:14;0.90;99.90
21167;DHT22;10741;52.272;9.580;2023-02-28T18:03:41;0.80;99.90
21167;DHT22;10741;52.272;9.580;2023-02-28T18:06:09;0.80;99.90
21167;DHT22;10741;52.272;9.580;2023-02-28T18:08:37;0.80;99.90
21167;DHT22;10741;52.272;9.580;2023-02-28T18:11:03;0.80;99.90
21167;DHT22;10741;52.272;9.580;2023-02-28T18:13:29;0.70;99.90
21167;DHT22;10741;52.272;9.580;2023-02-28T18:15:55;0.70;99.90
21167;DHT22;10741;52.272;9.580;2023-02-28T18:18:20;0.60;99.90